sensor_id;sensor_type;location;lat;lon;timestamp;P1;durP1;ratioP1;P2;durP2;ratioP2
53313;SDS011;39202;51.468;7.146;2023-03-04T00:01:29;2.13;;;2.03;;
53313;SDS011;39202;51.468;7.146;2023-03-04T00:06:30;2.13;;;1.92;;
53313;SDS011;39202;51.468;7.146;2023-03-04T00:11:34;2.00;;;1.90;;
53313;SDS011;39202;51.468;7.146;2023-03-04T00:16:36;2.17;;;2.08;;
53313;SDS011;39202;51.468;7.146;2023-03-04T00:21:38;2.60;;;2.40;;
53313;SDS011;39202;51.468;7.146;2023-03-04T00:26:41;2.33;;;2.20;;
53313;SDS011;39202;51.468;7.146;2023-03-04T00:31:42;2.17;;;1.98;;
53313;SDS011;39202;51.468;7.146;2023-03-04T00:36:44;2.13;;;2.03;;
53313;SDS011;39202;51.468;7.146;2023-03-04T00:41:47;2.42;;;2.22;;
53313;SDS011;39202;51.468;7.146;2023-03-04T00:46:49;1.92;;;1.83;;
53313;SDS011;39202;51.468;7.146;2023-03-04T00:51:51;2.38;;;2.17;;
53313;SDS011;39202;51.468;7.146;2023-03-04T00:56:54;2.50;;;2.30;;
53313;SDS011;39202;51.468;7.146;2023-03-04T01:01:55;1.90;;;1.80;;
53313;SDS011;39202;51.468;7.146;2023-03-04T01:06:57;2.50;;;2.30;;
53313;SDS011;39202;51.468;7.146;2023-03-04T01:12:00;1.75;;;1.65;;
53313;SDS011;39202;51.468;7.146;2023-03-04T01:17:02;2.05;;;1.95;;
53313;SDS011;39202;51.468;7.146;2023-03-04T01:22:04;2.08;;;1.98;;
53313;SDS011;39202;51.468;7.146;2023-03-04T01:27:07;1.80;;;1.70;;
53313;SDS011;39202;51.468;7.146;2023-03-04T01:32:09;2.03;;;1.92;;
53313;SDS011;39202;51.468;7.146;2023-03-04T01:37:10;2.38;;;2.17;;
53313;SDS011;39202;51.468;7.146;2023-03-04T01:42:15;2.22;;;2.03;;
53313;SDS011;39202;51.468;7.146;2023-03-04T01:47:19;2.00;;;1.90;;
53313;SDS011;39202;51.468;7.146;2023-03-04T01:52:23;2.05;;;1.95;;
53313;SDS011;39202;51.468;7.146;2023-03-04T01:57:34;2.22;;;2.10;;
53313;SDS011;39202;51.468;7.146;2023-03-04T02:02:36;1.90;;;1.80;;
53313;SDS011;39202;51.468;7.146;2023-03-04T02:07:38;2.17;;;2.08;;
53313;SDS011;39202;51.468;7.146;2023-03-04T02:12:41;1.98;;;1.88;;
53313;SDS011;39202;51.468;7.146;2023-03-04T02:17:42;2.08;;;1.88;;
53313;SDS011;39202;51.468;7.146;2023-03-04T02:22:46;1.90;;;1.80;;
53313;SDS011;39202;51.468;7.146;2023-03-04T02:27:55;1.80;;;1.70;;
53313;SDS011;39202;51.468;7.146;2023-03-04T02:32:57;1.80;;;1.70;;
53313;SDS011;39202;51.468;7.146;2023-03-04T02:37:58;2.03;;;1.92;;
53313;SDS011;39202;51.468;7.146;2023-03-04T02:43:01;1.80;;;1.70;;
53313;SDS011;39202;51.468;7.146;2023-03-04T02:48:04;1.90;;;1.80;;
53313;SDS011;39202;51.468;7.146;2023-03-04T02:53:06;1.75;;;1.65;;
53313;SDS011;39202;51.468;7.146;2023-03-04T02:58:09;1.80;;;1.70;;
53313;SDS011;39202;51.468;7.146;2023-03-04T03:03:11;1.88;;;1.77;;
53313;SDS011;39202;51.468;7.146;2023-03-04T03:08:13;1.83;;;1.73;;
53313;SDS011;39202;51.468;7.146;2023-03-04T03:13:16;1.60;;;1.50;;
53313;SDS011;39202;51.468;7.146;2023-03-04T03:18:18;1.80;;;1.70;;
53313;SDS011;39202;51.468;7.146;2023-03-04T03:23:19;1.60;;;1.55;;
53313;SDS011;39202;51.468;7.146;2023-03-04T03:28:23;1.63;;;1.52;;
53313;SDS011;39202;51.468;7.146;2023-03-04T03:33:24;1.58;;;1.48;;
53313;SDS011;39202;51.468;7.146;2023-03-04T03:38:26;1.80;;;1.70;;
53313;SDS011;39202;51.468;7.146;2023-03-04T03:43:29;1.80;;;1.70;;
53313;SDS011;39202;51.468;7.146;2023-03-04T03:48:31;1.48;;;1.38;;
53313;SDS011;39202;51.468;7.146;2023-03-04T03:53:33;1.67;;;1.58;;
53313;SDS011;39202;51.468;7.146;2023-03-04T03:58:36;1.63;;;1.52;;
53313;SDS011;39202;51.468;7.146;2023-03-04T04:03:37;1.73;;;1.63;;
53313;SDS011;39202;51.468;7.146;2023-03-04T04:08:40;1.70;;;1.60;;
53313;SDS011;39202;51.468;7.146;2023-03-04T04:13:43;1.73;;;1.63;;
53313;SDS011;39202;51.468;7.146;2023-03-04T04:18:45;1.65;;;1.55;;
53313;SDS011;39202;51.468;7.146;2023-03-04T04:23:46;1.75;;;1.65;;
53313;SDS011;39202;51.468;7.146;2023-03-04T04:28:49;1.60;;;1.50;;
53313;SDS011;39202;51.468;7.146;2023-03-04T04:33:51;1.42;;;1.33;;
53313;SDS011;39202;51.468;7.146;2023-03-04T04:38:53;1.60;;;1.50;;
53313;SDS011;39202;51.468;7.146;2023-03-04T04:43:56;1.67;;;1.58;;
53313;SDS011;39202;51.468;7.146;2023-03-04T04:48:58;1.50;;;1.40;;
53313;SDS011;39202;51.468;7.146;2023-03-04T04:54:00;1.50;;;1.40;;
53313;SDS011;39202;51.468;7.146;2023-03-04T04:59:04;1.52;;;1.42;;
53313;SDS011;39202;51.468;7.146;2023-03-04T05:04:06;1.50;;;1.40;;
53313;SDS011;39202;51.468;7.146;2023-03-04T05:09:08;1.70;;;1.60;;
53313;SDS011;39202;51.468;7.146;2023-03-04T05:14:11;1.60;;;1.50;;
53313;SDS011;39202;51.468;7.146;2023-03-04T05:19:13;1.45;;;1.38;;
53313;SDS011;39202;51.468;7.146;2023-03-04T05:24:14;1.25;;;1.20;;
53313;SDS011;39202;51.468;7.146;2023-03-04T05:29:17;1.20;;;1.20;;
53313;SDS011;39202;51.468;7.146;2023-03-04T05:34:19;1.45;;;1.35;;
53313;SDS011;39202;51.468;7.146;2023-03-04T05:39:21;1.60;;;1.50;;
53313;SDS011;39202;51.468;7.146;2023-03-04T05:44:24;1.60;;;1.50;;
53313;SDS011;39202;51.468;7.146;2023-03-04T05:49:26;1.73;;;1.63;;
53313;SDS011;39202;51.468;7.146;2023-03-04T05:54:28;1.63;;;1.52;;
53313;SDS011;39202;51.468;7.146;2023-03-04T05:59:31;1.38;;;1.27;;
53313;SDS011;39202;51.468;7.146;2023-03-04T06:04:32;1.30;;;1.27;;
53313;SDS011;39202;51.468;7.146;2023-03-04T06:09:34;1.60;;;1.50;;
53313;SDS011;39202;51.468;7.146;2023-03-04T06:14:37;1.42;;;1.33;;
53313;SDS011;39202;51.468;7.146;2023-03-04T06:19:39;1.40;;;1.30;;
53313;SDS011;39202;51.468;7.146;2023-03-04T06:24:41;1.20;;;1.20;;
53313;SDS011;39202;51.468;7.146;2023-03-04T06:29:44;1.20;;;1.20;;
53313;SDS011;39202;51.468;7.146;2023-03-04T06:34:46;1.48;;;1.40;;
53313;SDS011;39202;51.468;7.146;2023-03-04T06:39:48;1.60;;;1.50;;
53313;SDS011;39202;51.468;7.146;2023-03-04T06:44:51;1.50;;;1.40;;
53313;SDS011;39202;51.468;7.146;2023-03-04T06:49:53;1.20;;;1.20;;
53313;SDS011;39202;51.468;7.146;2023-03-04T06:54:55;1.40;;;1.30;;
53313;SDS011;39202;51.468;7.146;2023-03-04T06:59:58;1.30;;;1.30;;
53313;SDS011;39202;51.468;7.146;2023-03-04T07:04:59;1.25;;;1.25;;
53313;SDS011;39202;51.468;7.146;2023-03-04T07:10:01;1.15;;;1.15;;
53313;SDS011;39202;51.468;7.146;2023-03-04T07:15:05;1.30;;;1.20;;
53313;SDS011;39202;51.468;7.146;2023-03-04T07:20:08;1.33;;;1.23;;
53313;SDS011;39202;51.468;7.146;2023-03-04T07:25:10;1.17;;;1.17;;
53313;SDS011;39202;51.468;7.146;2023-03-04T07:30:14;1.00;;;1.00;;
53313;SDS011;39202;51.468;7.146;2023-03-04T07:35:16;1.25;;;1.25;;
53313;SDS011;39202;51.468;7.146;2023-03-04T07:40:18;1.17;;;1.15;;
53313;SDS011;39202;51.468;7.146;2023-03-04T07:45:21;1.00;;;1.00;;
53313;SDS011;39202;51.468;7.146;2023-03-04T07:50:24;1.25;;;1.20;;
53313;SDS011;39202;51.468;7.146;2023-03-04T07:55:26;0.90;;;0.90;;
53313;SDS011;39202;51.468;7.146;2023-03-04T08:00:30;1.35;;;1.30;;
53313;SDS011;39202;51.468;7.146;2023-03-04T08:05:33;1.15;;;1.15;;
53313;SDS011;39202;51.468;7.146;2023-03-04T08:10:34;1.00;;;1.00;;
53313;SDS011;39202;51.468;7.146;2023-03-04T08:15:40;1.10;;;1.10;;
53313;SDS011;39202;51.468;7.146;2023-03-04T08:20:42;1.20;;;1.20;;
53313;SDS011;39202;51.468;7.146;2023-03-04T08:25:44;1.08;;;1.08;;
53313;SDS011;39202;51.468;7.146;2023-03-04T08:30:52;1.00;;;1.00;;
53313;SDS011;39202;51.468;7.146;2023-03-04T08:35:55;1.10;;;1.10;;
53313;SDS011;39202;51.468;7.146;2023-03-04T08:40:57;0.95;;;0.95;;
53313;SDS011;39202;51.468;7.146;2023-03-04T08:46:00;1.00;;;1.00;;
53313;SDS011;39202;51.468;7.146;2023-03-04T08:51:05;1.05;;;1.05;;
53313;SDS011;39202;51.468;7.146;2023-03-04T08:56:08;1.00;;;1.00;;
53313;SDS011;39202;51.468;7.146;2023-03-04T09:01:12;0.93;;;0.93;;
53313;SDS011;39202;51.468;7.146;2023-03-04T09:06:15;1.48;;;1.38;;
53313;SDS011;39202;51.468;7.146;2023-03-04T09:11:17;1.27;;;1.00;;
53313;SDS011;39202;51.468;7.146;2023-03-04T09:16:20;0.93;;;0.93;;
53313;SDS011;39202;51.468;7.146;2023-03-04T09:21:22;1.02;;;1.02;;
53313;SDS011;39202;51.468;7.146;2023-03-04T09:26:24;0.90;;;0.90;;
53313;SDS011;39202;51.468;7.146;2023-03-04T09:31:29;1.10;;;1.10;;
53313;SDS011;39202;51.468;7.146;2023-03-04T09:36:30;0.95;;;0.95;;
53313;SDS011;39202;51.468;7.146;2023-03-04T09:41:34;1.02;;;1.02;;
53313;SDS011;39202;51.468;7.146;2023-03-04T09:46:40;0.98;;;0.98;;
53313;SDS011;39202;51.468;7.146;2023-03-04T09:51:44;1.05;;;1.05;;
53313;SDS011;39202;51.468;7.146;2023-03-04T09:56:51;0.95;;;0.95;;
53313;SDS011;39202;51.468;7.146;2023-03-04T10:02:06;1.00;;;1.00;;
53313;SDS011;39202;51.468;7.146;2023-03-04T10:07:19;1.10;;;1.00;;
53313;SDS011;39202;51.468;7.146;2023-03-04T10:12:24;1.17;;;1.10;;
53313;SDS011;39202;51.468;7.146;2023-03-04T10:17:33;1.00;;;1.00;;
53313;SDS011;39202;51.468;7.146;2023-03-04T10:22:41;0.82;;;0.82;;
53313;SDS011;39202;51.468;7.146;2023-03-04T10:27:47;0.98;;;0.98;;
53313;SDS011;39202;51.468;7.146;2023-03-04T10:32:52;0.90;;;0.90;;
53313;SDS011;39202;51.468;7.146;2023-03-04T10:37:54;1.00;;;1.00;;
53313;SDS011;39202;51.468;7.146;2023-03-04T10:43:01;1.00;;;1.00;;
53313;SDS011;39202;51.468;7.146;2023-03-04T10:48:08;0.95;;;0.95;;
53313;SDS011;39202;51.468;7.146;2023-03-04T10:53:29;0.90;;;0.90;;
53313;SDS011;39202;51.468;7.146;2023-03-04T10:58:33;0.80;;;0.80;;
53313;SDS011;39202;51.468;7.146;2023-03-04T11:03:36;0.80;;;0.80;;
53313;SDS011;39202;51.468;7.146;2023-03-04T11:08:38;0.80;;;0.80;;
53313;SDS011;39202;51.468;7.146;2023-03-04T11:13:41;0.80;;;0.80;;
53313;SDS011;39202;51.468;7.146;2023-03-04T11:18:54;0.82;;;0.82;;
53313;SDS011;39202;51.468;7.146;2023-03-04T11:23:59;0.60;;;0.60;;
53313;SDS011;39202;51.468;7.146;2023-03-04T11:29:04;0.85;;;0.85;;
53313;SDS011;39202;51.468;7.146;2023-03-04T11:34:16;0.80;;;0.80;;
53313;SDS011;39202;51.468;7.146;2023-03-04T11:39:28;0.80;;;0.80;;
53313;SDS011;39202;51.468;7.146;2023-03-04T11:44:34;0.77;;;0.77;;
53313;SDS011;39202;51.468;7.146;2023-03-04T11:49:44;0.70;;;0.70;;
53313;SDS011;39202;51.468;7.146;2023-03-04T11:55:02;0.70;;;0.70;;
53313;SDS011;39202;51.468;7.146;2023-03-04T12:00:22;0.70;;;0.70;;
53313;SDS011;39202;51.468;7.146;2023-03-04T12:05:38;0.80;;;0.80;;
53313;SDS011;39202;51.468;7.146;2023-03-04T12:10:47;0.70;;;0.70;;
53313;SDS011;39202;51.468;7.146;2023-03-04T12:15:56;0.75;;;0.75;;
53313;SDS011;39202;51.468;7.146;2023-03-04T12:21:14;0.75;;;0.75;;
53313;SDS011;39202;51.468;7.146;2023-03-04T12:26:24;0.80;;;0.80;;
53313;SDS011;39202;51.468;7.146;2023-03-04T12:31:36;0.80;;;0.80;;
53313;SDS011;39202;51.468;7.146;2023-03-04T12:36:42;0.70;;;0.70;;
53313;SDS011;39202;51.468;7.146;2023-03-04T12:41:52;0.90;;;0.90;;
53313;SDS011;39202;51.468;7.146;2023-03-04T12:47:09;0.80;;;0.80;;
53313;SDS011;39202;51.468;7.146;2023-03-04T12:52:23;0.70;;;0.70;;
53313;SDS011;39202;51.468;7.146;2023-03-04T12:57:33;0.70;;;0.70;;
53313;SDS011;39202;51.468;7.146;2023-03-04T13:02:42;1.30;;;0.82;;
53313;SDS011;39202;51.468;7.146;2023-03-04T13:07:58;0.60;;;0.60;;
53313;SDS011;39202;51.468;7.146;2023-03-04T13:13:31;0.90;;;0.90;;
53313;SDS011;39202;51.468;7.146;2023-03-04T13:18:35;0.63;;;0.63;;
53313;SDS011;39202;51.468;7.146;2023-03-04T13:23:39;0.70;;;0.70;;
53313;SDS011;39202;51.468;7.146;2023-03-04T13:28:41;0.68;;;0.68;;
53313;SDS011;39202;51.468;7.146;2023-03-04T13:33:44;0.70;;;0.70;;
53313;SDS011;39202;51.468;7.146;2023-03-04T13:39:00;0.70;;;0.70;;
53313;SDS011;39202;51.468;7.146;2023-03-04T13:44:04;0.70;;;0.70;;
53313;SDS011;39202;51.468;7.146;2023-03-04T13:55:37;0.70;;;0.70;;
53313;SDS011;39202;51.468;7.146;2023-03-04T14:00:45;0.90;;;0.90;;
53313;SDS011;39202;51.468;7.146;2023-03-04T14:11:12;1.58;;;0.70;;
53313;SDS011;39202;51.468;7.146;2023-03-04T14:16:18;0.70;;;0.70;;
53313;SDS011;39202;51.468;7.146;2023-03-04T14:21:20;0.80;;;0.75;;
53313;SDS011;39202;51.468;7.146;2023-03-04T14:26:23;0.90;;;0.90;;
53313;SDS011;39202;51.468;7.146;2023-03-04T14:31:26;0.60;;;0.60;;
53313;SDS011;39202;51.468;7.146;2023-03-04T14:36:30;0.80;;;0.80;;
53313;SDS011;39202;51.468;7.146;2023-03-04T14:41:35;0.70;;;0.70;;
53313;SDS011;39202;51.468;7.146;2023-03-04T14:46:41;0.75;;;0.75;;
53313;SDS011;39202;51.468;7.146;2023-03-04T14:51:46;0.70;;;0.70;;
53313;SDS011;39202;51.468;7.146;2023-03-04T14:56:51;0.80;;;0.80;;
53313;SDS011;39202;51.468;7.146;2023-03-04T15:01:53;0.70;;;0.70;;
53313;SDS011;39202;51.468;7.146;2023-03-04T15:07:11;0.70;;;0.70;;
53313;SDS011;39202;51.468;7.146;2023-03-04T15:12:20;0.80;;;0.80;;
53313;SDS011;39202;51.468;7.146;2023-03-04T15:17:26;0.70;;;0.70;;
53313;SDS011;39202;51.468;7.146;2023-03-04T15:22:54;0.70;;;0.70;;
53313;SDS011;39202;51.468;7.146;2023-03-04T15:27:59;0.70;;;0.70;;
53313;SDS011;39202;51.468;7.146;2023-03-04T15:33:02;0.68;;;0.68;;
53313;SDS011;39202;51.468;7.146;2023-03-04T15:38:06;0.85;;;0.85;;
53313;SDS011;39202;51.468;7.146;2023-03-04T15:43:12;0.70;;;0.70;;
53313;SDS011;39202;51.468;7.146;2023-03-04T15:48:16;0.68;;;0.68;;
53313;SDS011;39202;51.468;7.146;2023-03-04T15:53:20;0.82;;;0.82;;
53313;SDS011;39202;51.468;7.146;2023-03-04T15:58:28;0.73;;;0.70;;
53313;SDS011;39202;51.468;7.146;2023-03-04T16:03:31;0.65;;;0.65;;
53313;SDS011;39202;51.468;7.146;2023-03-04T16:08:33;0.70;;;0.70;;
53313;SDS011;39202;51.468;7.146;2023-03-04T16:13:36;0.70;;;0.70;;
53313;SDS011;39202;51.468;7.146;2023-03-04T16:18:38;0.88;;;0.80;;
53313;SDS011;39202;51.468;7.146;2023-03-04T16:23:41;0.70;;;0.70;;
53313;SDS011;39202;51.468;7.146;2023-03-04T16:28:46;0.70;;;0.70;;
53313;SDS011;39202;51.468;7.146;2023-03-04T16:33:48;0.70;;;0.70;;
53313;SDS011;39202;51.468;7.146;2023-03-04T16:38:50;0.73;;;0.73;;
53313;SDS011;39202;51.468;7.146;2023-03-04T16:43:54;0.55;;;0.55;;
53313;SDS011;39202;51.468;7.146;2023-03-04T16:48:59;0.60;;;0.60;;
53313;SDS011;39202;51.468;7.146;2023-03-04T16:54:01;0.60;;;0.60;;
53313;SDS011;39202;51.468;7.146;2023-03-04T16:59:04;0.60;;;0.60;;
53313;SDS011;39202;51.468;7.146;2023-03-04T17:04:06;0.60;;;0.60;;
53313;SDS011;39202;51.468;7.146;2023-03-04T17:09:07;0.60;;;0.60;;
53313;SDS011;39202;51.468;7.146;2023-03-04T17:14:11;0.60;;;0.60;;
53313;SDS011;39202;51.468;7.146;2023-03-04T17:19:12;0.60;;;0.60;;
53313;SDS011;39202;51.468;7.146;2023-03-04T17:24:14;0.70;;;0.70;;
53313;SDS011;39202;51.468;7.146;2023-03-04T17:29:17;0.60;;;0.60;;
53313;SDS011;39202;51.468;7.146;2023-03-04T17:34:19;0.70;;;0.70;;
53313;SDS011;39202;51.468;7.146;2023-03-04T17:39:21;0.57;;;0.57;;
53313;SDS011;39202;51.468;7.146;2023-03-04T17:44:24;0.60;;;0.60;;
53313;SDS011;39202;51.468;7.146;2023-03-04T17:49:26;0.60;;;0.60;;
53313;SDS011;39202;51.468;7.146;2023-03-04T17:54:28;0.60;;;0.60;;
53313;SDS011;39202;51.468;7.146;2023-03-04T17:59:31;0.77;;;0.77;;
53313;SDS011;39202;51.468;7.146;2023-03-04T18:04:33;0.52;;;0.52;;
53313;SDS011;39202;51.468;7.146;2023-03-04T18:09:35;0.70;;;0.70;;
53313;SDS011;39202;51.468;7.146;2023-03-04T18:14:38;0.60;;;0.60;;
53313;SDS011;39202;51.468;7.146;2023-03-04T18:19:40;0.60;;;0.60;;
53313;SDS011;39202;51.468;7.146;2023-03-04T18:24:42;0.65;;;0.65;;
53313;SDS011;39202;51.468;7.146;2023-03-04T18:29:45;0.60;;;0.60;;
53313;SDS011;39202;51.468;7.146;2023-03-04T18:34:47;0.60;;;0.60;;
53313;SDS011;39202;51.468;7.146;2023-03-04T18:39:49;0.70;;;0.70;;
53313;SDS011;39202;51.468;7.146;2023-03-04T18:44:52;0.70;;;0.70;;
53313;SDS011;39202;51.468;7.146;2023-03-04T18:49:54;0.40;;;0.40;;
53313;SDS011;39202;51.468;7.146;2023-03-04T18:54:55;0.60;;;0.60;;
53313;SDS011;39202;51.468;7.146;2023-03-04T18:59:59;0.50;;;0.50;;
53313;SDS011;39202;51.468;7.146;2023-03-04T19:05:04;0.57;;;0.57;;
53313;SDS011;39202;51.468;7.146;2023-03-04T19:10:08;0.65;;;0.65;;
53313;SDS011;39202;51.468;7.146;2023-03-04T19:15:12;0.70;;;0.70;;
53313;SDS011;39202;51.468;7.146;2023-03-04T19:20:15;0.60;;;0.60;;
53313;SDS011;39202;51.468;7.146;2023-03-04T19:25:17;0.52;;;0.52;;
53313;SDS011;39202;51.468;7.146;2023-03-04T19:30:20;0.73;;;0.73;;
53313;SDS011;39202;51.468;7.146;2023-03-04T19:35:22;0.50;;;0.50;;
53313;SDS011;39202;51.468;7.146;2023-03-04T19:40:23;0.50;;;0.50;;
53313;SDS011;39202;51.468;7.146;2023-03-04T19:45:28;0.52;;;0.52;;
53313;SDS011;39202;51.468;7.146;2023-03-04T19:50:30;0.60;;;0.60;;
53313;SDS011;39202;51.468;7.146;2023-03-04T19:55:35;0.70;;;0.70;;
53313;SDS011;39202;51.468;7.146;2023-03-04T20:00:38;0.60;;;0.60;;
53313;SDS011;39202;51.468;7.146;2023-03-04T20:05:40;0.52;;;0.52;;
53313;SDS011;39202;51.468;7.146;2023-03-04T20:10:42;0.50;;;0.50;;
53313;SDS011;39202;51.468;7.146;2023-03-04T20:15:45;1.15;;;0.60;;
53313;SDS011;39202;51.468;7.146;2023-03-04T20:20:47;0.65;;;0.65;;
53313;SDS011;39202;51.468;7.146;2023-03-04T20:25:50;0.80;;;0.60;;
53313;SDS011;39202;51.468;7.146;2023-03-04T20:31:09;0.60;;;0.60;;
53313;SDS011;39202;51.468;7.146;2023-03-04T20:36:11;0.47;;;0.47;;
53313;SDS011;39202;51.468;7.146;2023-03-04T20:41:13;0.57;;;0.57;;
53313;SDS011;39202;51.468;7.146;2023-03-04T20:46:28;0.60;;;0.60;;
53313;SDS011;39202;51.468;7.146;2023-03-04T20:51:32;0.70;;;0.70;;
53313;SDS011;39202;51.468;7.146;2023-03-04T20:56:34;0.55;;;0.55;;
53313;SDS011;39202;51.468;7.146;2023-03-04T21:01:39;0.70;;;0.70;;
53313;SDS011;39202;51.468;7.146;2023-03-04T21:06:42;0.52;;;0.52;;
53313;SDS011;39202;51.468;7.146;2023-03-04T21:11:46;0.65;;;0.65;;
53313;SDS011;39202;51.468;7.146;2023-03-04T21:16:52;0.70;;;0.70;;
53313;SDS011;39202;51.468;7.146;2023-03-04T21:21:55;0.70;;;0.70;;
53313;SDS011;39202;51.468;7.146;2023-03-04T21:26:58;0.60;;;0.60;;
53313;SDS011;39202;51.468;7.146;2023-03-04T21:32:03;0.45;;;0.45;;
53313;SDS011;39202;51.468;7.146;2023-03-04T21:37:07;0.60;;;0.60;;
53313;SDS011;39202;51.468;7.146;2023-03-04T21:42:09;0.70;;;0.70;;
53313;SDS011;39202;51.468;7.146;2023-03-04T21:47:12;0.60;;;0.60;;
53313;SDS011;39202;51.468;7.146;2023-03-04T21:52:13;0.50;;;0.50;;
53313;SDS011;39202;51.468;7.146;2023-03-04T21:57:15;0.60;;;0.60;;
53313;SDS011;39202;51.468;7.146;2023-03-04T22:02:19;0.60;;;0.60;;
53313;SDS011;39202;51.468;7.146;2023-03-04T22:07:22;0.40;;;0.40;;
53313;SDS011;39202;51.468;7.146;2023-03-04T22:12:23;0.60;;;0.60;;
53313;SDS011;39202;51.468;7.146;2023-03-04T22:17:27;0.50;;;0.50;;
53313;SDS011;39202;51.468;7.146;2023-03-04T22:22:29;0.52;;;0.52;;
53313;SDS011;39202;51.468;7.146;2023-03-04T22:27:31;0.50;;;0.50;;
53313;SDS011;39202;51.468;7.146;2023-03-04T22:32:34;0.57;;;0.57;;
53313;SDS011;39202;51.468;7.146;2023-03-04T22:37:35;0.52;;;0.52;;
53313;SDS011;39202;51.468;7.146;2023-03-04T22:42:37;0.45;;;0.45;;
53313;SDS011;39202;51.468;7.146;2023-03-04T22:47:44;0.43;;;0.43;;
53313;SDS011;39202;51.468;7.146;2023-03-04T22:52:47;0.50;;;0.50;;
53313;SDS011;39202;51.468;7.146;2023-03-04T22:57:49;0.60;;;0.60;;
53313;SDS011;39202;51.468;7.146;2023-03-04T23:02:52;0.60;;;0.60;;
53313;SDS011;39202;51.468;7.146;2023-03-04T23:07:54;0.55;;;0.55;;
53313;SDS011;39202;51.468;7.146;2023-03-04T23:12:56;0.50;;;0.50;;
53313;SDS011;39202;51.468;7.146;2023-03-04T23:17:59;0.63;;;0.63;;
53313;SDS011;39202;51.468;7.146;2023-03-04T23:23:01;0.40;;;0.40;;
53313;SDS011;39202;51.468;7.146;2023-03-04T23:28:03;0.50;;;0.50;;
53313;SDS011;39202;51.468;7.146;2023-03-04T23:33:06;0.50;;;0.50;;
53313;SDS011;39202;51.468;7.146;2023-03-04T23:38:08;0.43;;;0.43;;
53313;SDS011;39202;51.468;7.146;2023-03-04T23:43:10;0.50;;;0.50;;
53313;SDS011;39202;51.468;7.146;2023-03-04T23:48:13;0.60;;;0.50;;
53313;SDS011;39202;51.468;7.146;2023-03-04T23:53:14;0.43;;;0.43;;
53313;SDS011;39202;51.468;7.146;2023-03-04T23:58:17;0.45;;;0.45;;
